createdAt,value
2019-03-24T00:00:31.286Z,25.20
2019-03-24T00:01:40.649Z,26.00
2019-03-24T00:02:32.258Z,25.40
2019-03-24T00:03:31.357Z,25.10
2019-03-24T00:04:31.284Z,25.50
2019-03-24T00:05:31.236Z,25.60
2019-03-24T00:06:31.208Z,25.00
2019-03-24T00:07:31.209Z,25.10
2019-03-24T00:08:31.194Z,25.40
2019-03-24T00:09:31.187Z,25.60
2019-03-24T00:10:31.178Z,25.50
2019-03-24T00:11:31.196Z,26.20
2019-03-24T00:12:31.155Z,26.70
2019-03-24T00:13:31.152Z,26.10
2019-03-24T00:14:31.142Z,27.20
2019-03-24T00:15:31.146Z,27.30
2019-03-24T00:16:31.108Z,28.10
2019-03-24T00:17:31.115Z,28.30
2019-03-24T00:18:31.161Z,28.90
2019-03-24T00:19:31.073Z,29.40
2019-03-24T00:20:31.076Z,29.00
2019-03-24T00:21:31.052Z,31.50
2019-03-24T00:22:31.058Z,31.30
2019-03-24T00:23:31.030Z,32.60
2019-03-24T00:24:31.031Z,31.40
2019-03-24T00:25:31.020Z,33.60
2019-03-24T00:26:31.005Z,34.60
2019-03-24T00:27:30.996Z,35.10
2019-03-24T00:28:30.985Z,35.50
2019-03-24T00:29:30.972Z,37.80
2019-03-24T00:30:30.970Z,36.60
2019-03-24T00:31:30.970Z,39.00
2019-03-24T00:32:30.967Z,40.80
2019-03-24T00:33:31.088Z,41.40
2019-03-24T00:34:30.916Z,40.40
2019-03-24T00:35:30.906Z,40.10
2019-03-24T00:36:30.899Z,40.60
2019-03-24T00:37:30.882Z,41.20
2019-03-24T00:38:30.898Z,40.70
2019-03-24T00:39:30.874Z,40.90
2019-03-24T00:40:30.853Z,42.70
2019-03-24T00:41:30.843Z,43.00
2019-03-24T00:42:30.825Z,43.10
2019-03-24T00:43:30.823Z,43.30
2019-03-24T00:44:30.805Z,43.90
2019-03-24T00:45:36.755Z,42.90
2019-03-24T00:46:31.788Z,44.20
2019-03-24T00:47:30.774Z,45.30
2019-03-24T00:48:30.771Z,44.10
2019-03-24T00:49:30.799Z,44.20
2019-03-24T00:50:30.746Z,43.60
2019-03-24T00:51:30.730Z,45.10
2019-03-24T00:52:30.752Z,45.40
2019-03-24T00:53:30.724Z,45.70
2019-03-24T00:54:30.700Z,44.70
2019-03-24T00:55:32.240Z,45.00
2019-03-24T00:56:30.680Z,44.80
2019-03-24T00:57:30.684Z,45.30
2019-03-24T00:58:30.675Z,45.50
2019-03-24T00:59:30.658Z,45.30
2019-03-24T01:00:30.654Z,46.40
2019-03-24T01:01:30.641Z,43.50
2019-03-24T01:02:30.620Z,45.20
2019-03-24T01:03:30.615Z,46.60
2019-03-24T01:04:30.599Z,45.50
2019-03-24T01:05:30.585Z,47.20
2019-03-24T01:06:30.584Z,45.50
2019-03-24T01:07:30.578Z,43.90
2019-03-24T01:08:30.570Z,44.90
2019-03-24T01:09:30.572Z,45.90
2019-03-24T01:10:30.556Z,47.40
2019-03-24T01:11:30.526Z,47.80
2019-03-24T01:12:30.515Z,45.50
2019-03-24T01:13:30.520Z,47.30
2019-03-24T01:14:30.487Z,47.30
2019-03-24T01:15:30.490Z,48.90
2019-03-24T01:16:30.515Z,48.80
2019-03-24T01:17:30.471Z,47.10
2019-03-24T01:18:30.470Z,47.70
2019-03-24T01:19:30.435Z,45.50
2019-03-24T01:20:30.430Z,47.00
2019-03-24T01:21:30.412Z,50.00
2019-03-24T01:22:30.414Z,47.50
2019-03-24T01:23:30.429Z,49.70
2019-03-24T01:24:30.397Z,49.60
2019-03-24T01:25:30.445Z,49.90
2019-03-24T01:26:30.361Z,48.10
2019-03-24T01:27:30.359Z,50.80
2019-03-24T01:28:30.342Z,49.00
2019-03-24T01:29:30.333Z,48.20
2019-03-24T01:30:30.321Z,50.30
2019-03-24T01:31:30.307Z,49.90
2019-03-24T01:32:30.305Z,50.70
2019-03-24T01:33:30.291Z,48.90
2019-03-24T01:34:30.759Z,49.00
2019-03-24T01:35:30.283Z,49.20
2019-03-24T01:36:30.257Z,49.90
2019-03-24T01:37:30.244Z,49.80
2019-03-24T01:38:30.249Z,49.30
2019-03-24T01:39:30.231Z,49.40
2019-03-24T01:40:30.217Z,49.10
2019-03-24T01:41:30.208Z,48.00
2019-03-24T01:42:30.198Z,47.80
2019-03-24T01:43:30.201Z,49.20
2019-03-24T01:44:30.177Z,49.50
2019-03-24T01:45:30.172Z,47.10
2019-03-24T01:46:30.155Z,48.70
2019-03-24T01:47:30.144Z,48.40
2019-03-24T01:48:30.137Z,48.30
2019-03-24T01:49:30.129Z,47.50
2019-03-24T01:50:30.111Z,49.20
2019-03-24T01:51:30.103Z,48.30
2019-03-24T01:52:30.111Z,49.70
2019-03-24T01:53:30.092Z,47.60
2019-03-24T01:54:30.170Z,48.40
2019-03-24T01:55:30.052Z,48.50
2019-03-24T01:56:30.047Z,48.10
2019-03-24T01:57:30.031Z,46.00
2019-03-24T01:58:30.033Z,46.70
2019-03-24T01:59:30.038Z,45.60
2019-03-24T02:00:30.010Z,48.80
2019-03-24T02:01:29.989Z,48.00
2019-03-24T02:02:30.036Z,48.00
2019-03-24T02:03:29.979Z,48.30
2019-03-24T02:04:29.971Z,48.70
2019-03-24T02:05:29.952Z,47.50
2019-03-24T02:06:29.939Z,47.80
2019-03-24T02:07:29.936Z,49.20
2019-03-24T02:08:29.922Z,48.10
2019-03-24T02:09:29.942Z,49.20
2019-03-24T02:10:29.902Z,49.40
2019-03-24T02:11:29.943Z,48.90
2019-03-24T02:12:29.877Z,49.20
2019-03-24T02:13:29.868Z,49.90
2019-03-24T02:14:29.875Z,50.50
2019-03-24T02:15:29.853Z,51.70
2019-03-24T02:16:29.841Z,52.40
2019-03-24T02:17:29.825Z,52.80
2019-03-24T02:18:29.818Z,51.90
2019-03-24T02:19:29.807Z,53.50
2019-03-24T02:20:29.847Z,53.80
2019-03-24T02:21:29.793Z,53.80
2019-03-24T02:22:30.748Z,53.20
2019-03-24T02:23:29.764Z,53.30
2019-03-24T02:24:29.760Z,54.00
2019-03-24T02:25:29.746Z,52.10
2019-03-24T02:26:29.725Z,52.20
2019-03-24T02:27:29.723Z,55.70
2019-03-24T02:28:29.723Z,55.20
2019-03-24T02:29:29.722Z,54.60
2019-03-24T02:30:29.694Z,56.90
2019-03-24T02:31:29.672Z,56.90
2019-03-24T02:32:29.690Z,56.40
2019-03-24T02:33:29.657Z,58.50
2019-03-24T02:34:29.659Z,58.70
2019-03-24T02:35:29.642Z,58.20
2019-03-24T02:36:29.626Z,58.80
2019-03-24T02:37:29.611Z,59.30
2019-03-24T02:38:29.603Z,60.40
2019-03-24T02:39:29.620Z,59.20
2019-03-24T02:40:29.609Z,62.80
2019-03-24T02:41:29.574Z,62.10
2019-03-24T02:42:29.567Z,62.80
2019-03-24T02:43:29.548Z,61.10
2019-03-24T02:44:29.549Z,64.10
2019-03-24T02:45:29.589Z,62.00
2019-03-24T02:46:29.514Z,62.70
2019-03-24T02:47:29.582Z,65.90
2019-03-24T02:48:29.488Z,64.70
2019-03-24T02:49:29.492Z,65.50
2019-03-24T02:50:29.476Z,66.10
2019-03-24T02:51:29.475Z,66.60
2019-03-24T02:52:29.512Z,66.80
2019-03-24T02:53:29.471Z,65.70
2019-03-24T02:54:29.560Z,67.30
2019-03-24T02:55:29.419Z,69.10
2019-03-24T02:56:29.408Z,69.20
2019-03-24T02:57:29.396Z,67.80
2019-03-24T02:58:29.383Z,69.90
2019-03-24T02:59:29.372Z,69.80
2019-03-24T03:00:29.367Z,69.50
2019-03-24T03:01:29.416Z,71.40
2019-03-24T03:02:29.339Z,69.90
2019-03-24T03:03:29.341Z,70.70
2019-03-24T03:04:29.331Z,68.60
2019-03-24T03:05:29.325Z,71.00
2019-03-24T03:06:29.297Z,72.90
2019-03-24T03:07:29.285Z,71.50
2019-03-24T03:08:29.281Z,73.20
2019-03-24T03:09:29.265Z,73.10
2019-03-24T03:10:29.269Z,72.20
2019-03-24T03:11:29.265Z,74.20
2019-03-24T03:12:29.235Z,72.10
2019-03-24T03:13:29.228Z,74.00
2019-03-24T03:14:29.228Z,75.70
2019-03-24T03:15:29.206Z,76.80
2019-03-24T03:16:38.392Z,74.30
2019-03-24T03:17:30.190Z,76.70
2019-03-24T03:18:29.170Z,79.10
2019-03-24T03:19:29.167Z,80.20
2019-03-24T03:20:29.172Z,79.80
2019-03-24T03:21:29.134Z,80.10
2019-03-24T03:22:29.132Z,77.70
2019-03-24T03:23:29.153Z,79.10
2019-03-24T03:24:29.109Z,82.00
2019-03-24T03:25:29.100Z,81.10
2019-03-24T03:26:29.094Z,82.40
2019-03-24T03:27:29.076Z,83.10
2019-03-24T03:28:29.063Z,82.70
2019-03-24T03:29:29.087Z,79.10
2019-03-24T03:30:29.054Z,82.00
2019-03-24T03:31:29.054Z,82.80
2019-03-24T03:32:29.050Z,82.30
2019-03-24T03:33:29.010Z,83.60
2019-03-24T03:34:29.049Z,85.20
2019-03-24T03:35:28.992Z,84.30
2019-03-24T03:36:29.004Z,85.60
2019-03-24T03:37:29.136Z,83.50
2019-03-24T03:38:28.972Z,85.90
2019-03-24T03:39:29.042Z,86.60
2019-03-24T03:40:28.950Z,85.20
2019-03-24T03:41:28.939Z,85.50
2019-03-24T03:42:28.923Z,84.70
2019-03-24T03:43:28.904Z,87.10
2019-03-24T03:44:29.007Z,83.10
2019-03-24T03:45:28.978Z,87.30
2019-03-24T03:46:28.891Z,84.60
2019-03-24T03:47:28.875Z,88.20
2019-03-24T03:48:28.853Z,85.10
2019-03-24T03:49:28.838Z,86.50
2019-03-24T03:50:28.827Z,87.00
2019-03-24T03:51:28.897Z,87.80
2019-03-24T03:52:28.811Z,82.50
2019-03-24T03:53:28.799Z,83.90
2019-03-24T03:54:28.815Z,84.40
2019-03-24T03:55:28.774Z,86.00
2019-03-24T03:56:28.793Z,87.20
2019-03-24T03:57:28.755Z,88.80
2019-03-24T03:58:28.739Z,86.70
2019-03-24T03:59:28.739Z,89.40
2019-03-24T04:00:28.723Z,84.60
2019-03-24T04:01:28.709Z,87.20
2019-03-24T04:02:28.696Z,85.60
2019-03-24T04:03:28.699Z,90.20
2019-03-24T04:04:28.680Z,88.30
2019-03-24T04:05:28.675Z,87.20
2019-03-24T04:06:28.656Z,86.40
2019-03-24T04:07:28.642Z,86.90
2019-03-24T04:08:28.631Z,86.80
2019-03-24T04:09:28.625Z,86.10
2019-03-24T04:10:28.621Z,85.00
2019-03-24T04:11:28.635Z,83.00
2019-03-24T04:12:28.588Z,85.10
2019-03-24T04:13:28.579Z,85.60
2019-03-24T04:14:28.647Z,87.10
2019-03-24T04:15:28.603Z,90.80
2019-03-24T04:16:28.557Z,89.30
2019-03-24T04:17:28.551Z,85.20
2019-03-24T04:18:28.600Z,87.00
2019-03-24T04:19:28.527Z,91.10
2019-03-24T04:20:28.540Z,88.30
2019-03-24T04:21:28.513Z,91.90
2019-03-24T04:22:28.529Z,93.30
2019-03-24T04:23:28.471Z,89.60
2019-03-24T04:24:28.621Z,91.70
2019-03-24T04:25:28.478Z,91.80
2019-03-24T04:26:28.441Z,92.60
2019-03-24T04:27:28.449Z,91.70
2019-03-24T04:28:28.422Z,89.40
2019-03-24T04:29:28.460Z,91.30
2019-03-24T04:30:28.402Z,91.80
2019-03-24T04:31:28.383Z,91.90
2019-03-24T04:32:28.386Z,91.10
2019-03-24T04:33:28.366Z,89.40
2019-03-24T04:34:28.469Z,91.60
2019-03-24T04:35:28.353Z,91.50
2019-03-24T04:36:28.389Z,92.20
2019-03-24T04:37:28.738Z,89.10
2019-03-24T04:38:28.334Z,87.20
2019-03-24T04:39:28.297Z,91.90
2019-03-24T04:40:28.304Z,90.40
2019-03-24T04:41:28.344Z,90.60
2019-03-24T04:42:28.302Z,92.50
2019-03-24T04:43:28.266Z,91.50
2019-03-24T04:44:28.246Z,96.50
2019-03-24T04:45:28.240Z,91.20
2019-03-24T04:46:28.220Z,91.90
2019-03-24T04:47:28.267Z,88.10
2019-03-24T04:48:28.204Z,88.50
2019-03-24T04:49:28.192Z,86.80
2019-03-24T04:50:28.221Z,91.20
2019-03-24T04:51:28.170Z,90.90
2019-03-24T04:52:28.236Z,93.40
2019-03-24T04:53:28.164Z,91.60
2019-03-24T04:54:28.188Z,89.90
2019-03-24T04:55:28.146Z,94.30
2019-03-24T04:56:28.114Z,93.30
2019-03-24T04:57:28.148Z,92.20
2019-03-24T04:58:28.314Z,95.30
2019-03-24T04:59:28.086Z,94.40
2019-03-24T05:00:28.072Z,91.70
2019-03-24T05:01:28.079Z,96.60
2019-03-24T05:02:28.061Z,94.20
2019-03-24T05:03:28.305Z,93.50
2019-03-24T05:04:28.132Z,95.90
2019-03-24T05:05:28.021Z,90.80
2019-03-24T05:06:28.007Z,89.40
2019-03-24T05:07:28.020Z,92.10
2019-03-24T05:08:27.990Z,96.80
2019-03-24T05:09:27.981Z,95.50
2019-03-24T05:10:27.967Z,92.20
2019-03-24T05:11:27.965Z,91.30
2019-03-24T05:12:27.975Z,91.40
2019-03-24T05:13:27.936Z,91.30
2019-03-24T05:14:28.074Z,88.40
2019-03-24T05:15:27.941Z,88.30
2019-03-24T05:16:27.932Z,93.20
2019-03-24T05:17:27.999Z,94.80
2019-03-24T05:18:27.948Z,91.60
2019-03-24T05:19:27.873Z,96.00
2019-03-24T05:20:27.985Z,95.50
2019-03-24T05:21:27.849Z,94.00
2019-03-24T05:22:27.866Z,97.00
2019-03-24T05:23:27.831Z,95.20
2019-03-24T05:24:27.818Z,96.70
2019-03-24T05:25:27.809Z,96.00
2019-03-24T05:26:27.806Z,89.70
2019-03-24T05:27:27.820Z,96.60
2019-03-24T05:28:28.240Z,94.60
2019-03-24T05:29:27.765Z,94.10
2019-03-24T05:30:27.750Z,93.90
2019-03-24T05:31:27.748Z,94.00
2019-03-24T05:32:27.728Z,96.10
2019-03-24T05:33:27.740Z,90.50
2019-03-24T05:34:27.713Z,92.70
2019-03-24T05:35:27.696Z,98.10
2019-03-24T05:36:27.691Z,96.80
2019-03-24T05:37:27.676Z,100.40
2019-03-24T05:38:28.279Z,96.60
2019-03-24T05:39:27.668Z,95.10
2019-03-24T05:40:27.661Z,93.70
2019-03-24T05:41:27.630Z,93.40
2019-03-24T05:42:27.629Z,91.30
2019-03-24T05:43:27.621Z,94.80
2019-03-24T05:44:27.603Z,95.90
2019-03-24T05:45:27.590Z,91.60
2019-03-24T05:46:27.590Z,96.20
2019-03-24T05:47:36.793Z,97.30
2019-03-24T05:48:28.569Z,100.90
2019-03-24T05:49:27.544Z,97.30
2019-03-24T05:50:27.551Z,97.70
2019-03-24T05:51:27.523Z,99.70
2019-03-24T05:52:27.720Z,97.50
2019-03-24T05:53:27.549Z,99.10
2019-03-24T05:54:27.501Z,98.50
2019-03-24T05:55:27.483Z,96.20
2019-03-24T05:56:27.472Z,97.00
2019-03-24T05:57:27.477Z,99.10
2019-03-24T05:58:27.466Z,97.40
2019-03-24T05:59:27.620Z,96.20
2019-03-24T06:00:27.541Z,97.30
2019-03-24T06:01:27.418Z,97.30
2019-03-24T06:02:27.417Z,96.70
2019-03-24T06:03:27.749Z,95.90
2019-03-24T06:04:27.385Z,99.80
2019-03-24T06:05:27.403Z,100.10
2019-03-24T06:06:27.453Z,97.30
2019-03-24T06:07:27.354Z,98.70
2019-03-24T06:08:27.418Z,94.10
2019-03-24T06:09:27.431Z,95.10
2019-03-24T06:10:27.325Z,92.60
2019-03-24T06:11:27.311Z,93.80
2019-03-24T06:12:27.308Z,93.80
2019-03-24T06:13:27.318Z,94.10
2019-03-24T06:14:27.278Z,93.60
2019-03-24T06:15:28.248Z,94.60
2019-03-24T06:16:27.337Z,92.50
2019-03-24T06:17:27.245Z,92.20
2019-03-24T06:18:27.350Z,92.00
2019-03-24T06:19:27.300Z,93.40
2019-03-24T06:20:27.217Z,91.80
2019-03-24T06:21:27.204Z,94.80
2019-03-24T06:22:27.209Z,94.30
2019-03-24T06:23:27.206Z,92.80
2019-03-24T06:24:27.173Z,90.50
2019-03-24T06:25:27.262Z,88.50
2019-03-24T06:26:27.376Z,88.00
2019-03-24T06:27:27.148Z,92.70
2019-03-24T06:28:27.138Z,90.80
2019-03-24T06:29:27.121Z,91.00
2019-03-24T06:30:27.121Z,92.80
2019-03-24T06:31:27.110Z,89.70
2019-03-24T06:32:27.104Z,87.90
2019-03-24T06:33:27.076Z,92.30
2019-03-24T06:34:27.069Z,86.60
2019-03-24T06:35:27.237Z,87.60
2019-03-24T06:36:27.042Z,88.00
2019-03-24T06:37:27.033Z,87.20
2019-03-24T06:38:27.028Z,90.10
2019-03-24T06:39:27.060Z,89.50
2019-03-24T06:40:27.008Z,87.10
2019-03-24T06:41:27.208Z,87.40
2019-03-24T06:42:27.375Z,84.40
2019-03-24T06:43:27.092Z,85.10
2019-03-24T06:44:27.232Z,84.80
2019-03-24T06:45:28.692Z,86.80
2019-03-24T06:46:27.045Z,82.30
2019-03-24T06:47:27.130Z,84.90
2019-03-24T06:48:26.915Z,80.50
2019-03-24T06:49:26.962Z,85.80
2019-03-24T06:50:26.939Z,84.40
2019-03-24T06:51:26.912Z,81.00
2019-03-24T06:52:26.905Z,81.70
2019-03-24T06:53:26.907Z,82.90
2019-03-24T06:54:26.858Z,84.00
2019-03-24T06:55:26.841Z,82.40
2019-03-24T06:56:26.830Z,80.70
2019-03-24T06:57:26.833Z,81.20
2019-03-24T06:58:26.813Z,81.80
2019-03-24T06:59:27.088Z,83.10
2019-03-24T07:00:26.787Z,80.30
2019-03-24T07:01:26.779Z,79.80
2019-03-24T07:02:26.764Z,79.30
2019-03-24T07:03:26.766Z,79.80
2019-03-24T07:04:26.825Z,80.60
2019-03-24T07:05:26.743Z,79.60
2019-03-24T07:06:26.772Z,77.00
2019-03-24T07:07:26.715Z,76.50
2019-03-24T07:08:26.732Z,77.90
2019-03-24T07:09:26.696Z,78.70
2019-03-24T07:10:26.684Z,76.60
2019-03-24T07:11:26.679Z,75.50
2019-03-24T07:12:26.664Z,77.30
2019-03-24T07:13:26.837Z,77.20
2019-03-24T07:14:26.652Z,75.00
2019-03-24T07:15:26.631Z,76.40
2019-03-24T07:16:26.627Z,74.40
2019-03-24T07:17:26.609Z,73.60
2019-03-24T07:18:26.597Z,73.80
2019-03-24T07:19:26.600Z,73.70
2019-03-24T07:20:26.579Z,74.00
2019-03-24T07:21:26.570Z,74.30
2019-03-24T07:22:26.560Z,73.20
2019-03-24T07:23:26.558Z,70.30
2019-03-24T07:24:26.616Z,72.20
2019-03-24T07:25:26.524Z,72.80
2019-03-24T07:26:26.523Z,71.90
2019-03-24T07:27:26.501Z,70.00
2019-03-24T07:28:26.603Z,71.20
2019-03-24T07:29:26.484Z,71.00
2019-03-24T07:30:26.484Z,71.00
2019-03-24T07:31:26.461Z,69.80
2019-03-24T07:32:26.469Z,68.90
2019-03-24T07:33:26.451Z,67.00
2019-03-24T07:34:26.446Z,69.10
2019-03-24T07:35:26.437Z,68.60
2019-03-24T07:36:26.414Z,69.10
2019-03-24T07:37:26.408Z,66.00
2019-03-24T07:38:26.391Z,69.20
2019-03-24T07:39:26.384Z,68.30
2019-03-24T07:40:26.373Z,68.90
2019-03-24T07:41:26.400Z,65.30
2019-03-24T07:42:26.360Z,63.40
2019-03-24T07:43:26.438Z,64.20
2019-03-24T07:44:26.342Z,65.30
2019-03-24T07:45:29.234Z,66.20
2019-03-24T07:46:26.307Z,64.50
2019-03-24T07:47:26.291Z,62.30
2019-03-24T07:48:26.282Z,63.10
2019-03-24T07:49:26.283Z,65.10
2019-03-24T07:50:26.646Z,64.90
2019-03-24T07:51:26.257Z,62.10
2019-03-24T07:52:26.235Z,63.50
2019-03-24T07:53:26.228Z,60.80
2019-03-24T07:54:26.325Z,62.20
2019-03-24T07:55:26.223Z,62.10
2019-03-24T07:56:26.240Z,62.10
2019-03-24T07:57:26.209Z,62.20
2019-03-24T07:58:26.171Z,62.20
2019-03-24T07:59:26.159Z,62.20
2019-03-24T08:00:26.165Z,60.60
2019-03-24T08:01:26.139Z,60.00
2019-03-24T08:02:26.129Z,58.80
2019-03-24T08:03:26.170Z,59.80
2019-03-24T08:04:26.100Z,58.60
2019-03-24T08:05:26.132Z,58.50
2019-03-24T08:06:26.085Z,58.00
2019-03-24T08:07:26.067Z,57.30
2019-03-24T08:08:26.060Z,58.40
2019-03-24T08:09:26.044Z,57.40
2019-03-24T08:10:26.037Z,57.10
2019-03-24T08:11:26.030Z,57.60
2019-03-24T08:12:26.060Z,56.20
2019-03-24T08:13:26.005Z,55.40
2019-03-24T08:14:26.036Z,56.70
2019-03-24T08:15:25.990Z,56.10
2019-03-24T08:16:25.968Z,57.00
2019-03-24T08:17:25.963Z,54.80
2019-03-24T08:18:30.098Z,54.90
2019-03-24T08:19:26.236Z,56.10
2019-03-24T08:20:25.938Z,54.30
2019-03-24T08:21:25.920Z,54.90
2019-03-24T08:22:25.956Z,54.90
2019-03-24T08:23:25.913Z,54.80
2019-03-24T08:24:25.883Z,53.40
2019-03-24T08:25:25.890Z,52.80
2019-03-24T08:26:25.896Z,54.50
2019-03-24T08:27:25.852Z,53.90
2019-03-24T08:28:25.848Z,55.50
2019-03-24T08:29:25.833Z,55.40
2019-03-24T08:30:25.825Z,53.90
2019-03-24T08:31:25.819Z,55.70
2019-03-24T08:32:25.798Z,54.90
2019-03-24T08:33:25.790Z,55.30
2019-03-24T08:34:25.790Z,54.40
2019-03-24T08:35:25.770Z,54.10
2019-03-24T08:36:25.763Z,54.90
2019-03-24T08:37:25.746Z,55.60
2019-03-24T08:38:26.391Z,55.40
2019-03-24T08:39:25.732Z,53.60
2019-03-24T08:40:25.712Z,55.90
2019-03-24T08:41:25.723Z,54.30
2019-03-24T08:42:25.689Z,55.40
2019-03-24T08:43:25.678Z,53.30
2019-03-24T08:44:25.673Z,53.30
2019-03-24T08:45:25.661Z,54.60
2019-03-24T08:46:25.662Z,53.50
2019-03-24T08:47:25.638Z,54.20
2019-03-24T08:48:25.864Z,54.40
2019-03-24T08:49:25.632Z,53.20
2019-03-24T08:50:25.604Z,52.90
2019-03-24T08:51:25.604Z,54.90
2019-03-24T08:52:25.586Z,54.60
2019-03-24T08:53:25.570Z,53.20
2019-03-24T08:54:25.571Z,53.90
2019-03-24T08:55:25.561Z,50.90
2019-03-24T08:56:25.585Z,52.70
2019-03-24T08:57:25.560Z,53.50
2019-03-24T08:58:25.519Z,51.70
2019-03-24T08:59:25.511Z,52.80
2019-03-24T09:00:30.537Z,53.20
2019-03-24T09:01:26.500Z,53.80
2019-03-24T09:02:25.480Z,52.50
2019-03-24T09:03:25.527Z,51.90
2019-03-24T09:04:25.467Z,52.00
2019-03-24T09:05:25.520Z,53.20
2019-03-24T09:06:25.490Z,51.90
2019-03-24T09:07:25.470Z,53.10
2019-03-24T09:08:25.407Z,52.80
2019-03-24T09:09:25.411Z,54.10
2019-03-24T09:10:25.392Z,52.90
2019-03-24T09:11:31.145Z,53.30
2019-03-24T09:12:26.369Z,50.70
2019-03-24T09:13:25.361Z,50.70
2019-03-24T09:14:25.345Z,52.80
2019-03-24T09:15:25.349Z,51.80
2019-03-24T09:16:25.335Z,51.80
2019-03-24T09:17:25.424Z,49.60
2019-03-24T09:18:25.302Z,51.00
2019-03-24T09:19:25.294Z,52.20
2019-03-24T09:20:25.280Z,51.10
2019-03-24T09:21:25.283Z,51.70
2019-03-24T09:22:25.262Z,52.70
2019-03-24T09:23:25.263Z,51.50
2019-03-24T09:24:25.240Z,50.50
2019-03-24T09:25:25.338Z,49.90
2019-03-24T09:26:25.232Z,51.70
2019-03-24T09:27:25.208Z,51.20
2019-03-24T09:28:25.199Z,50.20
2019-03-24T09:29:25.193Z,49.90
2019-03-24T09:30:25.179Z,50.80
2019-03-24T09:31:25.178Z,48.90
2019-03-24T09:32:25.154Z,50.40
2019-03-24T09:33:25.145Z,50.70
2019-03-24T09:34:25.142Z,49.50
2019-03-24T09:35:25.124Z,49.60
2019-03-24T09:36:25.140Z,49.80
2019-03-24T09:37:25.134Z,49.50
2019-03-24T09:38:25.454Z,50.50
2019-03-24T09:39:25.096Z,48.80
2019-03-24T09:40:25.112Z,49.90
2019-03-24T09:41:25.070Z,49.70
2019-03-24T09:42:25.050Z,49.40
2019-03-24T09:43:25.037Z,48.00
2019-03-24T09:44:25.045Z,47.80
2019-03-24T09:45:25.018Z,47.80
2019-03-24T09:46:25.118Z,48.50
2019-03-24T09:47:24.994Z,47.00
2019-03-24T09:48:24.986Z,47.20
2019-03-24T09:49:24.976Z,46.60
2019-03-24T09:50:24.965Z,47.30
2019-03-24T09:51:25.005Z,47.80
2019-03-24T09:52:24.939Z,44.90
2019-03-24T09:53:24.930Z,44.70
2019-03-24T09:54:24.932Z,45.60
2019-03-24T09:55:24.911Z,44.50
2019-03-24T09:56:24.897Z,46.80
2019-03-24T09:57:24.888Z,45.90
2019-03-24T09:58:24.876Z,46.30
2019-03-24T09:59:24.865Z,43.40
2019-03-24T10:00:24.854Z,45.50
2019-03-24T10:01:24.844Z,45.60
2019-03-24T10:02:24.873Z,45.40
2019-03-24T10:03:24.822Z,45.10
2019-03-24T10:04:24.813Z,45.20
2019-03-24T10:05:24.810Z,44.10
2019-03-24T10:06:24.817Z,42.50
2019-03-24T10:07:24.788Z,43.90
2019-03-24T10:08:24.773Z,42.90
2019-03-24T10:09:24.785Z,43.10
2019-03-24T10:10:24.751Z,44.30
2019-03-24T10:11:24.745Z,43.50
2019-03-24T10:12:24.741Z,44.10
2019-03-24T10:13:24.717Z,46.70
2019-03-24T10:14:24.709Z,44.10
2019-03-24T10:15:24.787Z,44.40
2019-03-24T10:16:24.731Z,44.70
2019-03-24T10:17:24.691Z,46.00
2019-03-24T10:18:24.680Z,45.20
2019-03-24T10:19:24.667Z,46.70
2019-03-24T10:20:24.657Z,42.20
2019-03-24T10:21:24.747Z,42.20
2019-03-24T10:22:24.629Z,43.50
2019-03-24T10:23:24.613Z,43.80
2019-03-24T10:24:24.608Z,43.80
2019-03-24T10:25:24.602Z,44.40
2019-03-24T10:26:24.583Z,44.60
2019-03-24T10:27:24.578Z,44.60
2019-03-24T10:28:24.567Z,45.60
2019-03-24T10:29:24.580Z,44.20
2019-03-24T10:30:24.562Z,44.50
2019-03-24T10:31:24.538Z,45.20
2019-03-24T10:32:24.517Z,43.00
2019-03-24T10:33:24.511Z,44.50
2019-03-24T10:34:24.497Z,43.60
2019-03-24T10:35:24.507Z,41.60
2019-03-24T10:36:24.504Z,44.00
2019-03-24T10:37:24.497Z,44.00
2019-03-24T10:38:24.473Z,43.70
2019-03-24T10:39:24.448Z,43.30
2019-03-24T10:40:28.894Z,43.00
2019-03-24T10:41:24.422Z,42.60
2019-03-24T10:42:24.417Z,42.80
2019-03-24T10:43:24.399Z,43.10
2019-03-24T10:44:24.449Z,41.50
2019-03-24T10:45:24.436Z,42.30
2019-03-24T10:46:24.391Z,42.60
2019-03-24T10:47:24.399Z,43.30
2019-03-24T10:48:33.353Z,42.80
2019-03-24T10:49:25.486Z,44.40
2019-03-24T10:50:24.365Z,43.50
2019-03-24T10:51:24.463Z,43.80
2019-03-24T10:52:24.317Z,44.10
2019-03-24T10:53:24.303Z,44.30
2019-03-24T10:54:24.282Z,43.80
2019-03-24T10:55:24.318Z,42.50
2019-03-24T10:56:24.279Z,42.60
2019-03-24T10:57:24.282Z,43.30
2019-03-24T10:58:24.382Z,43.70
2019-03-24T10:59:24.249Z,42.90
2019-03-24T11:00:24.234Z,44.60
2019-03-24T11:01:24.212Z,44.50
2019-03-24T11:02:24.325Z,43.60
2019-03-24T11:03:24.194Z,44.50
2019-03-24T11:04:24.182Z,45.00
2019-03-24T11:05:24.168Z,44.80
2019-03-24T11:06:24.155Z,42.30
2019-03-24T11:07:24.157Z,44.20
2019-03-24T11:08:24.140Z,42.20
2019-03-24T11:09:24.128Z,42.40
2019-03-24T11:10:24.124Z,41.70
2019-03-24T11:11:24.124Z,41.40
2019-03-24T11:12:24.108Z,42.20
2019-03-24T11:13:24.101Z,42.20
2019-03-24T11:14:24.078Z,41.60
2019-03-24T11:15:24.127Z,44.40
2019-03-24T11:16:24.061Z,42.40
2019-03-24T11:17:24.114Z,39.40
2019-03-24T11:18:24.103Z,41.80
2019-03-24T11:19:34.885Z,39.00
2019-03-24T11:20:25.013Z,41.70
2019-03-24T11:21:24.006Z,41.20
2019-03-24T11:22:23.998Z,41.40
2019-03-24T11:23:23.992Z,41.00
2019-03-24T11:24:23.971Z,41.90
2019-03-24T11:25:23.963Z,40.00
2019-03-24T11:26:23.955Z,41.00
2019-03-24T11:27:23.977Z,42.00
2019-03-24T11:28:23.933Z,40.30
2019-03-24T11:29:23.922Z,38.80
2019-03-24T11:30:23.910Z,39.60
2019-03-24T11:31:23.902Z,39.50
2019-03-24T11:32:23.905Z,40.20
2019-03-24T11:33:23.878Z,41.90
2019-03-24T11:34:24.008Z,42.20
2019-03-24T11:35:23.854Z,40.50
2019-03-24T11:36:23.843Z,40.40
2019-03-24T11:37:23.842Z,39.10
2019-03-24T11:38:23.841Z,41.30
2019-03-24T11:39:23.817Z,37.50
2019-03-24T11:40:23.824Z,39.50
2019-03-24T11:41:23.817Z,38.50
2019-03-24T11:42:23.785Z,37.90
2019-03-24T11:43:23.776Z,38.60
2019-03-24T11:44:23.764Z,37.40
2019-03-24T11:45:23.765Z,37.70
2019-03-24T11:46:23.750Z,39.10
2019-03-24T11:47:26.935Z,38.60
2019-03-24T11:48:23.740Z,40.80
2019-03-24T11:49:23.718Z,39.20
2019-03-24T11:50:23.705Z,39.20
2019-03-24T11:51:23.740Z,38.40
2019-03-24T11:52:23.682Z,41.10
2019-03-24T11:53:23.674Z,40.70
2019-03-24T11:54:23.664Z,37.30
2019-03-24T11:55:23.656Z,37.90
2019-03-24T11:56:23.666Z,38.10
2019-03-24T11:57:23.635Z,35.20
2019-03-24T11:58:23.630Z,36.50
2019-03-24T11:59:23.630Z,38.90
2019-03-24T12:00:23.610Z,40.10
2019-03-24T12:01:23.595Z,38.30
2019-03-24T12:02:23.585Z,38.00
2019-03-24T12:03:25.460Z,36.70
2019-03-24T12:04:23.569Z,36.80
2019-03-24T12:05:23.552Z,35.90
2019-03-24T12:06:23.543Z,38.30
2019-03-24T12:07:23.564Z,36.80
2019-03-24T12:08:23.553Z,37.40
2019-03-24T12:09:23.526Z,36.20
2019-03-24T12:10:23.523Z,36.20
2019-03-24T12:11:23.531Z,38.40
2019-03-24T12:12:23.478Z,38.50
2019-03-24T12:13:23.530Z,34.70
2019-03-24T12:14:23.466Z,37.70
2019-03-24T12:15:23.448Z,37.10
2019-03-24T12:16:23.436Z,38.20
2019-03-24T12:17:23.429Z,39.00
2019-03-24T12:18:23.507Z,38.10
2019-03-24T12:19:23.421Z,37.70
2019-03-24T12:20:23.393Z,38.50
2019-03-24T12:21:23.389Z,38.60
2019-03-24T12:22:23.374Z,37.60
2019-03-24T12:23:23.365Z,38.60
2019-03-24T12:24:23.359Z,38.60
2019-03-24T12:25:23.394Z,38.30
2019-03-24T12:26:23.330Z,39.80
2019-03-24T12:27:23.335Z,40.40
2019-03-24T12:28:23.322Z,38.80
2019-03-24T12:29:23.357Z,37.70
2019-03-24T12:30:23.292Z,37.50
2019-03-24T12:31:23.279Z,37.00
2019-03-24T12:32:24.253Z,37.20
2019-03-24T12:33:23.274Z,39.10
2019-03-24T12:34:23.262Z,38.70
2019-03-24T12:35:23.240Z,39.10
2019-03-24T12:36:23.237Z,36.50
2019-03-24T12:37:23.230Z,37.30
2019-03-24T12:38:23.236Z,37.80
2019-03-24T12:39:23.287Z,39.40
2019-03-24T12:40:23.194Z,36.50
2019-03-24T12:41:23.229Z,38.60
2019-03-24T12:42:23.185Z,38.00
2019-03-24T12:43:23.165Z,38.10
2019-03-24T12:44:23.176Z,37.20
2019-03-24T12:45:23.147Z,38.60
2019-03-24T12:46:23.135Z,41.00
2019-03-24T12:47:23.123Z,40.30
2019-03-24T12:48:23.201Z,37.70
2019-03-24T12:49:23.188Z,39.10
2019-03-24T12:50:31.436Z,38.20
2019-03-24T12:51:24.084Z,38.80
2019-03-24T12:52:23.072Z,36.50